Time;durP1;ratioP1;P1;durP2;ratioP2;P2;SDS_P1;SDS_P2;PMS_P1;PMS_P2;Temp;Humidity;BMP_temperature;BMP_pressure;BME280_temperature;BME280_humidity;BME280_pressure;Samples;Min_cycle;Max_cycle;Signal;HPM_P1;HPM_P2
2022/10/06 00:02:18;;;;;;;548.67;518.37;;;11.90;26.60;;;;;;4992807;28;20650;-69
2022/10/06 00:04:45;;;;;;;466.13;441.07;;;11.90;26.90;;;;;;4994361;28;20178;-70
2022/10/06 00:07:10;;;;;;;533.33;505.17;;;11.80;27.20;;;;;;4994550;28;20436;-68
2022/10/06 00:09:36;;;;;;;586.23;553.90;;;11.70;27.20;;;;;;4994127;28;20412;-69
2022/10/06 00:12:02;;;;;;;521.80;493.20;;;11.70;27.90;;;;;;4993869;28;20174;-68
2022/10/06 00:14:27;;;;;;;369.50;347.80;;;11.60;28.00;;;;;;4993925;28;20586;-68
2022/10/06 00:16:53;;;;;;;545.70;515.97;;;11.70;27.90;;;;;;4993957;28;20197;-68
2022/10/06 00:19:19;;;;;;;614.80;580.50;;;11.90;27.60;;;;;;4992560;28;20423;-68
2022/10/06 00:21:44;;;;;;;458.03;433.13;;;11.90;26.80;;;;;;4993651;28;20500;-68
2022/10/06 00:24:10;;;;;;;558.40;528.40;;;11.90;27.10;;;;;;4993877;28;20176;-68
2022/10/06 00:26:36;;;;;;;392.80;370.47;;;11.80;27.60;;;;;;4993723;28;20909;-68
2022/10/06 00:29:02;;;;;;;598.33;565.07;;;11.70;27.90;;;;;;4993741;28;20468;-68
2022/10/06 00:31:28;;;;;;;488.87;463.10;;;11.70;27.90;;;;;;4993469;28;20180;-68
2022/10/06 00:33:54;;;;;;;408.37;385.17;;;11.70;27.90;;;;;;4993584;28;20467;-68
2022/10/06 00:36:20;;;;;;;553.47;521.63;;;11.70;27.90;;;;;;4993568;28;20420;-68
2022/10/06 00:38:45;;;;;;;519.67;490.63;;;11.60;27.90;;;;;;4991966;28;20455;-68
2022/10/06 00:41:16;;;;;;;538.03;506.27;;;11.40;29.00;;;;;;4993201;28;20215;-68
2022/10/06 00:43:55;;;;;;;480.10;455.03;;;11.30;29.50;;;;;;4993515;28;20212;-68
2022/10/06 00:46:29;;;;;;;539.63;511.07;;;11.20;30.50;;;;;;4993497;28;20419;-69
2022/10/06 00:49:12;;;;;;;491.10;465.53;;;11.40;29.70;;;;;;4993371;28;20506;-68
2022/10/06 00:51:43;;;;;;;576.17;543.87;;;11.40;30.00;;;;;;4993192;28;20462;-68
2022/10/06 00:54:10;;;;;;;510.67;483.97;;;11.40;29.50;;;;;;4991949;28;20530;-68
2022/10/06 00:56:38;;;;;;;514.43;485.93;;;11.40;28.90;;;;;;4993550;28;20805;-69
2022/10/06 00:59:08;;;;;;;459.67;436.07;;;11.40;29.30;;;;;;4993187;28;20408;-68
2022/10/06 01:01:35;;;;;;;543.63;514.57;;;11.50;29.00;;;;;;4990855;28;20811;-68
2022/10/06 01:04:07;;;;;;;503.23;475.57;;;11.50;28.50;;;;;;4993197;28;20444;-68
2022/10/06 01:07:00;;;;;;;521.27;494.60;;;11.60;28.00;;;;;;4993286;28;20423;-68
2022/10/06 01:09:27;;;;;;;544.13;513.87;;;11.50;28.30;;;;;;4991426;28;20439;-68
2022/10/06 01:11:59;;;;;;;498.20;470.30;;;11.50;28.30;;;;;;4993418;28;20503;-68
2022/10/06 01:14:26;;;;;;;493.27;468.23;;;11.40;28.80;;;;;;4992907;28;20502;-68
2022/10/06 01:17:03;;;;;;;451.70;426.97;;;11.30;28.90;;;;;;4992889;28;20435;-69
2022/10/06 01:19:51;;;;;;;545.63;515.70;;;11.40;29.10;;;;;;4993286;28;20411;-69
2022/10/06 01:22:45;;;;;;;557.90;525.23;;;11.40;28.90;;;;;;4992939;28;20470;-69
2022/10/06 01:25:16;;;;;;;609.33;574.63;;;11.30;29.70;;;;;;4991134;28;20426;-69
2022/10/06 01:27:45;;;;;;;503.70;477.50;;;11.30;29.10;;;;;;4991792;28;20955;-69
2022/10/06 01:30:15;;;;;;;456.77;433.53;;;11.20;29.80;;;;;;4992988;28;20715;-70
2022/10/06 01:32:41;;;;;;;523.27;494.10;;;11.20;29.70;;;;;;4992540;28;20418;-69
2022/10/06 01:35:08;;;;;;;488.27;462.37;;;11.10;30.00;;;;;;4993282;28;20412;-69
2022/10/06 01:37:34;;;;;;;540.67;511.37;;;11.20;29.60;;;;;;4991877;28;20459;-69
2022/10/06 01:39:59;;;;;;;492.20;464.83;;;11.30;29.30;;;;;;4991435;28;20992;-70
2022/10/06 01:42:25;;;;;;;499.30;472.03;;;11.20;29.80;;;;;;4992325;28;20424;-69
2022/10/06 01:44:50;;;;;;;454.47;430.23;;;11.20;29.60;;;;;;4992590;28;20545;-69
2022/10/06 01:47:16;;;;;;;418.80;396.40;;;10.90;31.20;;;;;;4992475;28;20641;-69
2022/10/06 01:49:42;;;;;;;402.10;380.00;;;10.80;31.70;;;;;;4992494;28;20242;-69
2022/10/06 01:52:08;;;;;;;402.33;381.37;;;10.80;32.10;;;;;;4992296;28;20187;-69
2022/10/06 01:54:33;;;;;;;491.53;463.83;;;10.90;32.20;;;;;;4992381;28;20216;-69
2022/10/06 01:56:59;;;;;;;531.20;503.93;;;11.00;31.80;;;;;;4992738;28;20441;-69
2022/10/06 01:59:24;;;;;;;536.73;508.27;;;11.10;31.90;;;;;;4991199;28;20614;-69
2022/10/06 02:01:50;;;;;;;534.77;506.73;;;11.10;31.90;;;;;;4992188;28;20207;-69
2022/10/06 02:04:16;;;;;;;493.67;468.10;;;11.20;31.00;;;;;;4991061;28;20216;-70
2022/10/06 02:06:42;;;;;;;449.03;425.77;;;11.30;30.10;;;;;;4992335;28;20568;-68
2022/10/06 02:09:07;;;;;;;522.70;495.33;;;11.20;30.20;;;;;;4991119;28;20181;-69
2022/10/06 02:11:34;;;;;;;649.70;613.20;;;11.20;30.00;;;;;;4991630;28;20600;-69
2022/10/06 02:14:00;;;;;;;503.00;476.30;;;11.20;30.70;;;;;;4996319;28;20201;-69
2022/10/06 02:16:26;;;;;;;430.57;407.60;;;11.20;30.80;;;;;;4996151;28;20423;-69
2022/10/06 02:18:53;;;;;;;505.00;479.33;;;11.20;30.00;;;;;;4996161;28;20420;-69
2022/10/06 02:21:20;;;;;;;439.47;415.90;;;11.10;30.20;;;;;;4995759;28;20416;-69
2022/10/06 02:23:47;;;;;;;465.33;440.33;;;11.20;30.80;;;;;;4994814;28;20856;-69
2022/10/06 02:26:16;;;;;;;500.33;474.17;;;11.20;29.90;;;;;;4996028;28;20426;-70
2022/10/06 02:28:43;;;;;;;450.67;428.23;;;11.20;30.10;;;;;;4994566;28;20509;-68
2022/10/06 02:31:09;;;;;;;505.07;477.83;;;11.20;30.20;;;;;;4995533;28;20998;-70
2022/10/06 02:33:36;;;;;;;489.27;464.03;;;11.10;30.40;;;;;;4994529;28;20838;-70
2022/10/06 02:36:03;;;;;;;525.50;498.03;;;11.00;31.70;;;;;;4994394;28;20412;-68
2022/10/06 02:38:31;;;;;;;580.53;550.10;;;11.10;31.20;;;;;;4995577;28;20455;-69
2022/10/06 02:40:57;;;;;;;475.23;450.50;;;11.10;31.00;;;;;;4995127;28;20414;-69
2022/10/06 02:43:23;;;;;;;508.77;481.20;;;11.20;30.80;;;;;;4995707;28;20726;-68
2022/10/06 02:45:59;;;;;;;612.90;578.27;;;11.20;29.90;;;;;;4995540;28;20412;-69
2022/10/06 02:48:26;;;;;;;490.20;464.97;;;11.20;30.00;;;;;;4994779;28;20196;-69
2022/10/06 02:51:00;;;;;;;668.87;631.63;;;11.10;30.80;;;;;;4995217;28;20459;-69
2022/10/06 02:53:26;;;;;;;445.70;421.37;;;11.10;30.10;;;;;;4995563;28;20465;-68
2022/10/06 02:56:07;;;;;;;479.07;453.87;;;11.00;31.30;;;;;;4995519;28;20431;-69
2022/10/06 02:58:33;;;;;;;395.10;374.43;;;11.00;31.10;;;;;;4995462;28;21059;-70
2022/10/06 03:01:05;;;;;;;565.30;533.43;;;11.10;30.40;;;;;;4995293;28;20546;-68
2022/10/06 03:03:31;;;;;;;502.57;476.30;;;11.00;30.90;;;;;;4994027;28;20470;-68
2022/10/06 03:06:20;;;;;;;581.20;550.73;;;11.00;31.20;;;;;;4995449;28;20793;-68
2022/10/06 03:08:58;;;;;;;468.47;444.87;;;11.00;31.20;;;;;;4995140;28;20518;-69
2022/10/06 03:11:29;;;;;;;510.97;482.80;;;11.10;30.50;;;;;;4994986;28;20412;-68
2022/10/06 03:13:56;;;;;;;515.87;488.10;;;11.10;30.40;;;;;;4995145;28;20466;-68
2022/10/06 03:16:30;;;;;;;567.63;536.67;;;11.10;30.80;;;;;;4995094;28;20408;-68
2022/10/06 03:18:56;;;;;;;520.57;493.20;;;11.00;31.20;;;;;;4993852;28;20500;-68
2022/10/06 03:21:24;;;;;;;541.50;512.07;;;11.00;31.90;;;;;;4994765;28;20454;-68
2022/10/06 03:23:52;;;;;;;594.63;562.80;;;11.00;31.30;;;;;;4994144;28;20543;-68
2022/10/06 03:26:21;;;;;;;434.83;412.03;;;11.10;30.70;;;;;;4993667;28;20416;-68
2022/10/06 03:28:47;;;;;;;514.90;486.23;;;11.00;31.50;;;;;;4993472;28;20443;-68
2022/10/06 03:31:14;;;;;;;475.77;450.73;;;11.10;30.80;;;;;;4994583;28;20418;-68
2022/10/06 03:33:40;;;;;;;444.60;420.17;;;11.10;30.10;;;;;;4993312;28;20869;-68
2022/10/06 03:36:09;;;;;;;466.80;442.20;;;11.10;30.30;;;;;;4994815;28;20422;-67
2022/10/06 03:38:36;;;;;;;466.40;442.37;;;11.10;30.80;;;;;;4994592;28;20448;-68
2022/10/06 03:41:03;;;;;;;461.20;435.97;;;11.10;30.70;;;;;;4993192;28;20427;-68
2022/10/06 03:43:29;;;;;;;483.10;457.43;;;11.20;30.40;;;;;;4994568;28;20524;-68
2022/10/06 03:45:56;;;;;;;493.30;466.73;;;11.10;30.90;;;;;;4994584;28;20443;-68
2022/10/06 03:48:22;;;;;;;443.03;420.10;;;11.10;31.10;;;;;;4994437;28;20195;-68
2022/10/06 03:50:59;;;;;;;511.17;484.60;;;11.10;31.00;;;;;;4994251;28;20481;-68
2022/10/06 03:53:27;;;;;;;397.57;375.03;;;11.10;30.80;;;;;;4993028;28;20204;-68
2022/10/06 03:56:09;;;;;;;468.87;442.20;;;11.10;31.00;;;;;;4994467;28;20415;-68
2022/10/06 03:58:37;;;;;;;530.97;502.13;;;11.10;31.10;;;;;;4994408;28;20424;-68
2022/10/06 04:01:06;;;;;;;587.17;553.77;;;11.10;31.50;;;;;;4992976;28;20408;-68
2022/10/06 04:03:32;;;;;;;462.70;437.17;;;11.10;30.90;;;;;;4994170;28;20929;-68
2022/10/06 04:06:00;;;;;;;433.03;410.50;;;11.00;31.80;;;;;;4994263;28;20408;-68
2022/10/06 04:08:27;;;;;;;493.50;465.53;;;11.10;31.70;;;;;;4994131;28;20443;-68
2022/10/06 04:10:52;;;;;;;479.13;454.87;;;11.10;31.00;;;;;;4992484;28;20522;-68
2022/10/06 04:13:19;;;;;;;566.87;535.77;;;11.00;31.80;;;;;;4993897;28;20539;-68
2022/10/06 04:15:46;;;;;;;455.90;431.70;;;11.00;31.30;;;;;;4994005;28;20179;-68
2022/10/06 04:18:13;;;;;;;487.13;461.03;;;11.00;31.60;;;;;;4992625;28;20442;-68
2022/10/06 04:20:39;;;;;;;488.33;462.00;;;11.00;31.80;;;;;;4992419;28;20423;-67
2022/10/06 04:23:05;;;;;;;531.73;502.37;;;11.00;31.80;;;;;;4993629;28;20909;-68
2022/10/06 04:25:31;;;;;;;441.87;417.43;;;11.00;32.70;;;;;;4993802;28;20447;-68
2022/10/06 04:27:57;;;;;;;373.10;352.37;;;11.10;33.00;;;;;;4993578;28;20809;-68
2022/10/06 04:30:24;;;;;;;411.37;391.00;;;11.30;32.10;;;;;;4993740;28;20410;-68
2022/10/06 04:32:50;;;;;;;629.53;595.60;;;11.30;32.10;;;;;;4993364;28;20655;-68
2022/10/06 04:35:15;;;;;;;547.00;517.97;;;11.30;32.60;;;;;;4993557;28;20439;-68
2022/10/06 04:37:41;;;;;;;555.57;525.67;;;11.30;33.40;;;;;;4993557;28;20294;-68
2022/10/06 04:40:07;;;;;;;632.13;596.70;;;11.30;32.10;;;;;;4993617;28;20181;-69
2022/10/06 04:42:32;;;;;;;457.23;432.57;;;11.10;32.90;;;;;;4993257;28;20534;-68
2022/10/06 04:44:58;;;;;;;608.13;575.33;;;11.00;33.70;;;;;;4993387;28;20498;-69
2022/10/06 04:47:23;;;;;;;441.93;418.03;;;11.00;33.90;;;;;;4993348;28;20227;-69
2022/10/06 04:49:49;;;;;;;589.20;556.87;;;11.10;32.90;;;;;;4993391;28;20184;-69
2022/10/06 04:52:14;;;;;;;469.57;444.80;;;11.20;32.70;;;;;;4993489;28;20189;-68
2022/10/06 04:54:40;;;;;;;426.37;406.03;;;10.90;33.50;;;;;;4993609;28;20211;-69
2022/10/06 04:57:06;;;;;;;340.10;321.70;;;10.80;34.20;;;;;;4993239;28;20196;-68
2022/10/06 05:02:15;;;;;;;394.43;374.87;;;10.60;36.50;;;;;;4993101;28;20653;-69
2022/10/06 05:04:41;;;;;;;516.00;489.43;;;10.60;36.60;;;;;;4993388;28;20424;-68
2022/10/06 05:07:06;;;;;;;546.93;518.37;;;10.60;36.50;;;;;;4993294;28;20204;-69
2022/10/06 05:09:32;;;;;;;652.20;617.13;;;10.70;36.10;;;;;;4993311;28;20192;-69
2022/10/06 05:11:58;;;;;;;636.03;601.53;;;10.70;35.80;;;;;;4991931;28;20191;-69
2022/10/06 05:14:23;;;;;;;549.63;520.67;;;10.70;35.10;;;;;;4993298;28;20320;-68
2022/10/06 05:16:49;;;;;;;503.40;477.23;;;10.80;35.40;;;;;;4992893;28;20199;-69
2022/10/06 05:19:14;;;;;;;667.67;631.90;;;10.80;34.80;;;;;;4992859;28;20242;-70
2022/10/06 05:21:40;;;;;;;598.10;564.60;;;10.80;34.90;;;;;;4991831;28;20244;-70
2022/10/06 05:24:06;;;;;;;496.77;470.63;;;10.80;35.10;;;;;;4992876;28;20184;-69
2022/10/06 05:26:33;;;;;;;414.80;393.13;;;10.90;34.40;;;;;;4994014;28;20619;-69
2022/10/06 05:28:59;;;;;;;519.73;492.40;;;10.90;33.50;;;;;;4993457;28;20940;-69
2022/10/06 05:31:30;;;;;;;364.70;346.03;;;10.90;33.60;;;;;;4992419;28;20431;-69
2022/10/06 05:33:57;;;;;;;461.23;437.23;;;11.00;33.20;;;;;;4993809;28;20207;-70
2022/10/06 05:36:27;;;;;;;551.50;522.17;;;11.00;32.50;;;;;;4995124;28;20427;-69
2022/10/06 05:38:53;;;;;;;483.90;458.07;;;10.90;33.30;;;;;;4994823;28;20408;-69
2022/10/06 05:41:20;;;;;;;506.37;478.73;;;10.90;33.20;;;;;;4994006;28;20426;-69
2022/10/06 05:43:46;;;;;;;542.20;513.57;;;10.90;34.20;;;;;;4994032;28;20834;-70
2022/10/06 05:46:19;;;;;;;521.67;494.20;;;11.00;33.70;;;;;;4991850;28;20431;-69
2022/10/06 05:48:46;;;;;;;386.53;367.43;;;11.10;33.40;;;;;;4993713;28;20442;-68
2022/10/06 05:51:12;;;;;;;710.60;672.00;;;11.10;33.00;;;;;;4992326;28;20424;-69
2022/10/06 05:53:38;;;;;;;370.37;351.00;;;11.00;33.50;;;;;;4991647;28;20471;-69
2022/10/06 05:56:13;;;;;;;700.43;660.70;;;11.00;34.10;;;;;;4993364;28;20431;-69
2022/10/06 05:58:40;;;;;;;431.00;407.37;;;11.10;33.90;;;;;;4992084;28;20224;-69
2022/10/06 06:01:13;;;;;;;502.83;475.90;;;11.20;33.80;;;;;;4993505;28;20426;-69
2022/10/06 06:03:41;;;;;;;592.03;560.40;;;11.30;33.30;;;;;;4994169;28;20412;-68
2022/10/06 06:06:36;;;;;;;551.87;522.57;;;11.40;33.00;;;;;;4994049;28;20437;-69
2022/10/06 06:09:11;;;;;;;505.10;478.13;;;11.60;32.30;;;;;;4985488;28;20826;-69
2022/10/06 06:11:39;;;;;;;567.83;537.70;;;11.70;32.50;;;;;;4994080;28;21006;-70
2022/10/06 06:14:10;;;;;;;597.60;565.03;;;11.80;32.00;;;;;;4993061;28;20470;-69
2022/10/06 06:16:37;;;;;;;545.97;517.27;;;11.80;32.60;;;;;;4993215;28;20415;-68
2022/10/06 06:19:05;;;;;;;618.57;584.03;;;11.90;32.60;;;;;;4992449;28;20425;-68
2022/10/06 06:21:31;;;;;;;563.10;532.97;;;12.00;32.70;;;;;;4993082;28;20516;-69
2022/10/06 06:23:57;;;;;;;717.90;676.77;;;12.10;32.80;;;;;;4993595;28;20424;-70
2022/10/06 06:26:27;;;;;;;562.43;532.43;;;12.10;32.80;;;;;;4993096;28;20760;-69
2022/10/06 06:28:55;;;;;;;611.17;576.30;;;12.30;33.00;;;;;;4991940;28;20519;-69
2022/10/06 06:31:26;;;;;;;577.47;545.33;;;12.40;31.80;;;;;;4993062;28;20438;-70
2022/10/06 06:33:57;;;;;;;612.07;578.57;;;12.50;31.60;;;;;;4987219;28;20503;-69
2022/10/06 06:36:30;;;;;;;536.83;505.70;;;12.60;31.00;;;;;;4988534;28;20468;-68
2022/10/06 06:38:57;;;;;;;613.23;578.83;;;12.70;29.80;;;;;;4988600;28;20436;-68
2022/10/06 06:41:27;;;;;;;543.90;514.80;;;12.80;30.30;;;;;;4987115;28;20438;-69
2022/10/06 06:43:53;;;;;;;593.67;560.63;;;12.90;30.10;;;;;;4989033;28;20663;-70
2022/10/06 06:46:24;;;;;;;665.83;627.00;;;13.10;28.90;;;;;;4987887;28;20934;-69
2022/10/06 06:48:50;;;;;;;613.53;579.67;;;13.20;29.30;;;;;;4989628;28;20193;-69
2022/10/06 06:51:16;;;;;;;604.00;567.50;;;13.30;28.30;;;;;;4992377;28;20919;-69
2022/10/06 06:53:41;;;;;;;551.50;520.50;;;13.40;28.50;;;;;;4991633;28;20470;-67
2022/10/06 06:56:08;;;;;;;608.27;573.27;;;13.50;29.10;;;;;;4992874;28;20239;-68
2022/10/06 06:58:35;;;;;;;666.63;627.33;;;13.60;28.80;;;;;;4993872;28;20267;-68
2022/10/06 07:01:04;;;;;;;543.43;512.67;;;13.60;29.60;;;;;;4994483;28;20422;-68
2022/10/06 07:03:30;;;;;;;605.27;570.07;;;13.70;28.00;;;;;;4995595;28;20417;-68
2022/10/06 07:06:08;;;;;;;530.87;501.80;;;13.70;28.00;;;;;;4996069;28;20411;-68
2022/10/06 07:08:35;;;;;;;573.47;541.20;;;13.70;27.90;;;;;;4995390;28;20608;-67
2022/10/06 07:11:10;;;;;;;601.37;564.83;;;13.90;26.80;;;;;;4995621;28;20419;-69
2022/10/06 07:13:35;;;;;;;577.90;545.10;;;14.10;26.50;;;;;;4995271;28;20461;-67
2022/10/06 07:27:02;;;;;;;548.60;517.67;;;;;;;;;;4995693;28;20487;-69
2022/10/06 07:29:28;;;;;;;697.57;652.77;;;;;;;;;;4994842;28;20453;-68
2022/10/06 07:31:54;;;;;;;717.50;671.63;;;;;;;;;;4995841;28;20761;-68
2022/10/06 07:34:21;;;;;;;554.03;522.43;;;;;;;;;;4994964;28;20502;-68
2022/10/06 07:36:49;;;;;;;524.73;495.00;;;;;;;;;;5019865;23;20439;-66
2022/10/06 07:39:15;;;;;;;548.77;517.63;;;;;;;;;;4994644;28;20446;-69
2022/10/06 07:41:41;;;;;;;693.47;647.07;;;;;;;;;;4994369;28;20415;-69
2022/10/06 07:44:07;;;;;;;680.40;637.57;;;;;;;;;;4994602;28;20498;-69
2022/10/06 07:46:32;;;;;;;746.43;696.93;;;;;;;;;;4994675;28;20415;-69
2022/10/06 07:48:59;;;;;;;623.47;584.20;;;;;;;;;;4994569;28;20458;-69
2022/10/06 07:51:26;;;;;;;665.50;623.57;;;;;;;;;;4994691;28;20435;-67
2022/10/06 07:53:52;;;;;;;607.10;569.47;;;;;;;;;;4994282;28;20984;-66
2022/10/06 07:56:21;;;;;;;528.63;497.43;;;;;;;;;;4994230;28;20469;-69
2022/10/06 07:58:48;;;;;;;561.00;527.17;;;;;;;;;;4994185;28;20427;-70
2022/10/06 08:01:15;;;;;;;545.67;513.17;;;;;;;;;;4993985;28;20419;-68
2022/10/06 08:03:42;;;;;;;548.57;514.90;;;;;;;;;;4994341;28;20411;-68
2022/10/06 08:06:14;;;;;;;614.10;575.70;;;;;;;;;;4994617;28;20435;-68
2022/10/06 08:08:41;;;;;;;582.87;546.70;;;;;;;;;;4993921;28;20443;-68
2022/10/06 08:11:08;;;;;;;564.10;529.57;;;;;;;;;;4993585;28;20781;-68
2022/10/06 08:13:37;;;;;;;511.53;482.70;;;;;;;;;;4993870;28;20476;-68
2022/10/06 08:16:05;;;;;;;497.67;469.13;;;14.40;25.10;;;;;;4994265;28;20964;-69
2022/10/06 08:18:31;;;;;;;550.37;517.17;;;;;;;;;;4994093;28;20490;-66
2022/10/06 08:20:57;;;;;;;568.77;536.47;;;;;;;;;;4994124;28;20495;-67
2022/10/06 08:23:23;;;;;;;609.10;570.60;;;;;;;;;;4992938;28;20515;-67
2022/10/06 08:25:52;;;;;;;708.70;658.63;;;15.50;19.90;;;;;;4994477;28;20482;-68
2022/10/06 08:28:19;;;;;;;619.90;577.70;;;15.70;19.90;;;;;;4993913;28;20852;-67
2022/10/06 08:30:45;;;;;;;689.10;641.33;;;15.70;19.70;;;;;;4993534;28;20446;-66
2022/10/06 08:33:11;;;;;;;750.63;698.87;;;15.70;20.40;;;;;;4993617;28;20459;-67
2022/10/06 08:35:38;;;;;;;656.97;613.47;;;15.80;20.20;;;;;;4989059;28;20438;-69
2022/10/06 08:38:04;;;;;;;477.93;449.87;;;15.70;20.70;;;;;;4989497;28;20510;-68
2022/10/06 08:40:31;;;;;;;557.73;523.60;;;15.80;19.70;;;;;;4989405;28;20937;-68
2022/10/06 08:42:59;;;;;;;461.60;435.43;;;15.90;20.40;;;;;;4986378;28;20522;-69
2022/10/06 08:45:42;;;;;;;533.73;502.27;;;16.00;19.70;;;;;;4989084;28;20435;-68
2022/10/06 08:48:17;;;;;;;749.83;694.90;;;16.10;19.60;;;;;;4989553;28;20457;-70
2022/10/06 08:51:04;;;;;;;572.63;535.10;;;16.20;19.70;;;;;;4989835;28;20435;-69
2022/10/06 08:53:39;;;;;;;686.80;639.33;;;16.20;19.40;;;;;;4987556;28;20459;-67
2022/10/06 08:56:16;;;;;;;714.90;664.03;;;16.30;19.80;;;;;;4989051;28;20830;-68
2022/10/06 08:59:03;;;;;;;710.60;658.93;;;16.40;19.30;;;;;;4988795;28;20436;-68
2022/10/06 09:01:42;;;;;;;506.63;472.60;;;16.40;19.40;;;;;;4988696;28;20531;-68
2022/10/06 09:04:13;;;;;;;526.40;493.17;;;16.60;18.60;;;;;;4988897;28;20411;-68
2022/10/06 09:06:49;;;;;;;594.43;555.27;;;16.70;18.40;;;;;;4989007;28;20821;-68
2022/10/06 09:09:27;;;;;;;589.63;551.63;;;16.90;18.80;;;;;;4988510;28;20494;-67
2022/10/06 09:12:26;;;;;;;792.10;729.70;;;17.00;18.30;;;;;;4988249;28;20424;-68
2022/10/06 09:15:13;;;;;;;662.13;615.37;;;17.10;17.70;;;;;;4988241;28;20547;-67
2022/10/06 09:17:46;;;;;;;587.73;547.80;;;17.30;17.70;;;;;;4998507;28;20443;-68
2022/10/06 09:20:21;;;;;;;775.47;714.97;;;17.40;17.30;;;;;;5008242;28;20411;-68
2022/10/06 09:22:49;;;;;;;674.50;624.20;;;17.60;16.90;;;;;;5007372;28;20793;-67
2022/10/06 09:25:19;;;;;;;640.17;594.90;;;17.70;17.50;;;;;;5008318;28;20545;-68
2022/10/06 09:27:49;;;;;;;480.17;451.47;;;;;;;;;;5008796;28;20522;-68
2022/10/06 09:30:15;;;;;;;711.30;657.67;;;18.10;15.60;;;;;;5008123;28;20431;-67
2022/10/06 09:32:46;;;;;;;686.43;638.13;;;18.30;16.20;;;;;;5006391;28;20423;-68
2022/10/06 09:35:18;;;;;;;776.90;712.20;;;18.40;16.40;;;;;;4977509;28;20460;-68
2022/10/06 09:38:04;;;;;;;783.20;720.33;;;18.40;15.40;;;;;;4969355;28;20548;-68
2022/10/06 09:40:37;;;;;;;784.03;720.00;;;18.60;15.60;;;;;;4987206;28;20431;-67
2022/10/06 09:43:05;;;;;;;703.67;649.73;;;18.70;15.90;;;;;;4986492;28;20519;-67
2022/10/06 09:45:30;;;;;;;546.27;512.40;;;18.80;15.70;;;;;;4991286;28;20418;-67
2022/10/06 09:48:12;;;;;;;662.33;612.77;;;18.60;12.90;;;;;;4992328;28;20515;-67
2022/10/06 09:50:38;;;;;;;512.23;478.07;;;18.90;13.70;;;;;;4991601;28;20519;-67
2022/10/06 09:53:15;;;;;;;609.30;564.53;;;19.00;12.20;;;;;;4972592;28;20790;-66
2022/10/06 09:55:50;;;;;;;625.33;577.60;;;19.10;12.00;;;;;;4973262;28;20446;-67
2022/10/06 09:58:20;;;;;;;544.83;507.37;;;19.40;12.90;;;;;;4972996;28;20432;-69
2022/10/06 10:00:56;;;;;;;577.10;535.03;;;19.60;14.00;;;;;;4984200;28;20475;-69
2022/10/06 10:03:24;;;;;;;525.93;494.43;;;19.60;11.30;;;;;;4999546;28;20423;-67
2022/10/06 10:05:53;;;;;;;451.00;424.17;;;19.10;11.50;;;;;;4994431;28;20767;-67
2022/10/06 10:08:29;;;;;;;577.50;535.63;;;18.90;11.30;;;;;;4994255;28;20458;-67
2022/10/06 10:12:23;;;;;;;478.50;446.57;;;19.00;12.50;;;;;;4993343;28;20470;-67
2022/10/06 10:13:54;;;;;;;659.10;605.97;;;19.40;12.70;;;;;;4992139;28;20467;-67
2022/10/06 10:16:29;;;;;;;768.10;700.50;;;19.70;12.60;;;;;;5005131;28;20780;-67
2022/10/06 10:18:55;;;;;;;586.10;545.30;;;20.00;11.40;;;;;;5011802;28;20427;-68
2022/10/06 10:21:28;;;;;;;612.37;569.43;;;20.20;10.00;;;;;;5007341;28;20422;-67
2022/10/06 10:23:57;;;;;;;681.63;628.90;;;20.30;10.70;;;;;;4991789;28;20846;-66
2022/10/06 10:26:35;;;;;;;448.90;421.30;;;20.00;10.70;;;;;;4992258;28;20424;-68
2022/10/06 10:29:39;;;;;;;531.87;495.53;;;19.80;9.40;;;;;;4975513;28;20444;-66
2022/10/06 10:32:18;;;;;;;612.60;568.23;;;19.90;8.60;;;;;;4976438;28;20435;-68
2022/10/06 10:35:15;;;;;;;632.87;584.07;;;19.60;9.70;;;;;;4976157;28;20824;-67
2022/10/06 10:37:58;;;;;;;598.83;553.70;;;19.30;9.70;;;;;;4989883;28;20521;-66
2022/10/06 10:40:27;;;;;;;525.27;492.03;;;19.10;10.00;;;;;;4996079;28;20452;-67
2022/10/06 10:43:00;;;;;;;472.53;442.47;;;18.80;11.20;;;;;;4995808;28;20431;-67
2022/10/06 10:45:32;;;;;;;549.80;511.97;;;18.80;10.60;;;;;;4996186;28;20404;-68
2022/10/06 10:48:00;;;;;;;577.63;536.27;;;18.80;10.60;;;;;;4995875;28;20838;-70
2022/10/06 10:50:33;;;;;;;450.00;422.13;;;18.10;9.70;;;;;;4996120;28;20411;-69
2022/10/06 10:53:17;;;;;;;464.50;436.27;;;17.80;10.60;;;;;;4995459;28;20873;-69
2022/10/06 10:55:47;;;;;;;647.40;599.17;;;17.70;11.70;;;;;;4995878;28;20404;-66
2022/10/06 10:58:21;;;;;;;559.30;520.10;;;17.80;11.90;;;;;;4995930;28;20431;-66
2022/10/06 11:00:54;;;;;;;593.23;555.17;;;18.20;9.70;;;;;;4995452;28;20784;-68
2022/10/06 11:03:19;;;;;;;598.83;557.40;;;18.20;10.00;;;;;;4996318;28;20436;-68
2022/10/06 11:06:00;;;;;;;564.50;528.57;;;18.60;10.40;;;;;;4995912;28;20412;-68
2022/10/06 11:08:34;;;;;;;660.90;613.57;;;19.00;9.90;;;;;;4996284;28;20203;-68
2022/10/06 11:11:03;;;;;;;655.53;609.03;;;19.30;10.00;;;;;;4996534;28;20458;-68
2022/10/06 11:13:49;;;;;;;642.93;596.97;;;19.80;10.10;;;;;;4996200;28;20467;-68
2022/10/06 11:16:25;;;;;;;665.40;616.17;;;20.10;9.60;;;;;;4994804;28;20427;-66
2022/10/06 11:19:21;;;;;;;638.20;588.13;;;20.50;8.70;;;;;;4994905;28;20449;-66
2022/10/06 11:22:09;;;;;;;585.47;546.53;;;20.80;8.10;;;;;;4994771;28;20490;-67
2022/10/06 11:24:58;;;;;;;619.00;571.40;;;21.00;6.10;;;;;;4994903;28;20431;-68
2022/10/06 11:27:23;;;;;;;599.57;555.33;;;20.30;7.80;;;;;;4994878;28;20432;-68
2022/10/06 11:30:07;;;;;;;671.03;619.77;;;20.30;7.80;;;;;;4994746;28;20503;-68
2022/10/06 11:32:51;;;;;;;702.53;642.67;;;20.50;8.40;;;;;;4994725;28;20187;-68
2022/10/06 11:35:20;;;;;;;617.90;572.17;;;20.60;8.50;;;;;;4994589;28;20533;-68
2022/10/06 11:38:18;;;;;;;621.87;578.97;;;20.50;7.90;;;;;;4994416;28;20554;-68
2022/10/06 11:40:53;;;;;;;571.27;532.67;;;20.60;8.00;;;;;;4994911;28;20419;-68
2022/10/06 11:43:49;;;;;;;554.20;518.33;;;19.80;9.80;;;;;;4994658;28;20406;-67
2022/10/06 11:46:48;;;;;;;638.23;592.00;;;19.20;10.10;;;;;;4974941;28;20761;-68
2022/10/06 11:49:29;;;;;;;609.80;571.27;;;18.90;11.30;;;;;;4972837;28;20435;-68
2022/10/06 11:52:14;;;;;;;561.27;526.17;;;19.10;11.30;;;;;;4974773;28;20420;-67
2022/10/06 11:54:43;;;;;;;651.87;604.10;;;18.90;11.00;;;;;;4963189;28;20525;-68
2022/10/06 11:57:26;;;;;;;598.00;559.50;;;18.90;11.30;;;;;;4994316;28;20809;-66
2022/10/06 12:00:15;;;;;;;592.43;551.80;;;19.00;11.40;;;;;;4994348;28;20415;-68
2022/10/06 12:02:41;;;;;;;489.97;459.57;;;19.20;10.60;;;;;;4993847;28;20423;-66
2022/10/06 12:05:19;;;;;;;586.47;548.10;;;19.40;10.30;;;;;;4986440;28;20448;-66
2022/10/06 12:07:56;;;;;;;655.10;609.73;;;19.10;10.80;;;;;;4974581;28;20499;-65
2022/10/06 12:10:28;;;;;;;619.13;577.17;;;19.40;10.70;;;;;;4974383;28;20949;-66
2022/10/06 12:13:15;;;;;;;704.40;653.30;;;19.70;10.10;;;;;;4974379;28;20440;-67
2022/10/06 12:16:02;;;;;;;601.40;557.67;;;19.60;9.60;;;;;;4990805;28;20451;-68
2022/10/06 12:18:43;;;;;;;596.50;558.43;;;19.50;9.40;;;;;;4994112;28;20460;-68
2022/10/06 12:21:16;;;;;;;623.30;579.50;;;19.70;9.60;;;;;;4993848;28;20857;-68
2022/10/06 12:23:57;;;;;;;602.03;560.93;;;19.90;9.40;;;;;;4975037;28;20828;-68
2022/10/06 12:26:43;;;;;;;591.40;553.57;;;19.90;8.50;;;;;;4993725;28;20419;-70
2022/10/06 12:29:42;;;;;;;620.30;577.67;;;19.40;9.70;;;;;;4994250;28;20432;-70
2022/10/06 12:32:26;;;;;;;672.07;619.57;;;20.10;10.70;;;;;;4993257;28;21003;-68
2022/10/06 12:34:59;;;;;;;568.37;530.37;;;20.10;9.00;;;;;;4993419;28;20466;-68
2022/10/06 12:37:31;;;;;;;612.97;566.97;;;19.50;10.10;;;;;;4993081;28;20622;-68
2022/10/06 12:40:34;;;;;;;570.43;531.90;;;19.60;10.80;;;;;;4993474;28;20408;-68
2022/10/06 12:43:17;;;;;;;812.40;739.87;;;19.60;9.90;;;;;;4993207;28;20419;-68
2022/10/06 12:45:47;;;;;;;547.60;514.90;;;19.60;9.60;;;;;;4993328;28;20439;-68
2022/10/06 12:48:34;;;;;;;559.57;523.67;;;19.40;9.90;;;;;;4993258;28;20446;-68
2022/10/06 12:51:11;;;;;;;502.97;469.97;;;19.10;11.20;;;;;;4992710;28;20424;-69